Time;durP1;ratioP1;P1;durP2;ratioP2;P2;SDS_P1;SDS_P2;PMS_P1;PMS_P2;Temp;Humidity;BMP_temperature;BMP_pressure;BME280_temperature;BME280_humidity;BME280_pressure;Samples;Min_cycle;Max_cycle;Signal;HPM_P1;HPM_P2
2022/04/23 00:01:31;;;;;;;13.33;8.00;;;;;;;7.16;100.00;100504.13;7391732;19;20391;-48
2022/04/23 00:04:00;;;;;;;15.37;7.87;;;;;;;7.02;100.00;100498.28;7387207;19;20422;-46
2022/04/23 00:06:30;;;;;;;29.93;15.23;;;;;;;7.06;100.00;100491.59;7391033;19;20403;-46
2022/04/23 00:09:00;;;;;;;43.63;23.20;;;;;;;7.14;100.00;100482.66;7385962;19;20426;-45
2022/04/23 00:11:30;;;;;;;22.50;11.63;;;;;;;7.14;100.00;100480.94;7390805;19;20462;-49
2022/04/23 00:14:00;;;;;;;26.97;14.57;;;;;;;7.19;100.00;100482.88;7385473;19;20433;-44
2022/04/23 00:16:32;;;;;;;24.03;12.90;;;;;;;7.15;100.00;100471.56;7391457;19;20732;-45
2022/04/23 00:19:02;;;;;;;20.20;11.13;;;;;;;7.08;100.00;100467.81;7385825;19;20411;-47
2022/04/23 00:21:33;;;;;;;14.10;8.50;;;;;;;7.18;100.00;100464.03;7398570;19;21020;-45
2022/04/23 00:24:03;;;;;;;16.10;8.20;;;;;;;6.98;100.00;100465.59;7392911;19;20943;-44
2022/04/23 00:26:33;;;;;;;13.33;8.63;;;;;;;6.96;100.00;100456.91;7397887;19;20390;-47
2022/04/23 00:29:02;;;;;;;15.80;9.23;;;;;;;6.99;100.00;100446.81;7393040;19;20771;-45
2022/04/23 00:31:36;;;;;;;12.80;8.53;;;;;;;6.83;100.00;100458.84;7398881;19;20387;-45
2022/04/23 00:34:06;;;;;;;11.83;8.30;;;;;;;6.66;100.00;100452.81;7388817;19;20419;-44
2022/04/23 00:36:35;;;;;;;13.63;8.63;;;;;;;6.74;100.00;100440.41;7398427;19;20802;-45
2022/04/23 00:39:05;;;;;;;15.37;9.10;;;;;;;6.68;100.00;100434.97;7391530;19;20416;-45
2022/04/23 00:41:46;;;;;;;20.80;9.50;;;;;;;6.63;100.00;100434.75;7398315;19;20391;-48
2022/04/23 00:44:16;;;;;;;17.17;10.30;;;;;;;6.62;100.00;100420.16;7389888;19;20510;-47
2022/04/23 00:46:48;;;;;;;18.80;9.77;;;;;;;6.54;100.00;100406.94;7398262;19;20397;-46
2022/04/23 00:49:18;;;;;;;15.73;9.33;;;;;;;6.57;100.00;100401.94;7397482;19;20421;-44
2022/04/23 00:51:47;;;;;;;22.37;11.47;;;;;;;6.55;100.00;100407.78;7397824;19;20382;-46
2022/04/23 00:54:17;;;;;;;18.90;9.90;;;;;;;6.43;100.00;100408.03;7394062;19;20421;-45
2022/04/23 00:56:46;;;;;;;22.87;10.73;;;;;;;6.38;100.00;100404.34;7397014;19;20385;-47
2022/04/23 00:59:16;;;;;;;21.80;11.10;;;;;;;6.40;100.00;100393.38;7392343;19;20931;-46
2022/04/23 01:01:49;;;;;;;19.50;11.77;;;;;;;6.31;100.00;100378.41;7397147;19;20394;-45
2022/04/23 01:04:19;;;;;;;18.63;11.10;;;;;;;6.20;100.00;100384.63;7399009;19;20480;-45
2022/04/23 01:06:48;;;;;;;18.00;10.80;;;;;;;6.27;100.00;100373.94;7396970;19;20406;-44
2022/04/23 01:09:18;;;;;;;18.87;11.30;;;;;;;6.19;100.00;100359.81;7394323;19;20437;-49
2022/04/23 01:11:48;;;;;;;23.33;11.83;;;;;;;6.16;100.00;100347.72;7399524;19;20915;-47
2022/04/23 01:14:18;;;;;;;25.93;11.83;;;;;;;6.19;100.00;100336.75;7384338;19;20711;-45
2022/04/23 01:16:50;;;;;;;22.97;11.70;;;;;;;6.13;100.00;100326.19;7397166;19;20912;-47
2022/04/23 01:19:22;;;;;;;21.80;12.40;;;;;;;6.23;100.00;100331.00;7396366;19;20413;-47
2022/04/23 01:21:54;;;;;;;15.57;10.10;;;;;;;6.24;100.00;100317.38;7396262;19;20387;-45
2022/04/23 01:24:24;;;;;;;19.50;11.53;;;;;;;6.29;100.00;100308.25;7395865;19;20524;-45
2022/04/23 01:26:53;;;;;;;22.00;12.97;;;;;;;6.16;100.00;100311.00;7391252;19;20389;-46
2022/04/23 01:29:22;;;;;;;27.53;13.40;;;;;;;6.06;100.00;100300.25;7396482;19;20386;-46
2022/04/23 01:31:52;;;;;;;26.00;12.13;;;;;;;6.07;100.00;100291.75;7390885;19;20395;-47
2022/04/23 01:34:21;;;;;;;20.73;11.70;;;;;;;6.13;100.00;100280.06;7389517;19;20767;-46
2022/04/23 01:37:00;;;;;;;21.27;11.80;;;;;;;6.20;100.00;100271.91;7391133;19;20378;-44
2022/04/23 01:39:30;;;;;;;20.90;12.90;;;;;;;6.06;100.00;100273.78;7398000;19;20394;-47
2022/04/23 01:41:59;;;;;;;24.47;13.57;;;;;;;6.11;100.00;100262.09;7388346;19;20918;-45
2022/04/23 01:44:29;;;;;;;29.23;14.90;;;;;;;6.01;100.00;100270.03;7394225;19;20420;-47
2022/04/23 01:46:58;;;;;;;23.60;13.67;;;;;;;5.93;100.00;100256.81;7389947;19;20392;-47
2022/04/23 01:49:28;;;;;;;25.67;14.60;;;;;;;5.90;100.00;100256.69;7395684;19;20399;-46
2022/04/23 01:52:00;;;;;;;26.00;13.60;;;;;;;5.88;100.00;100248.03;7389367;19;20390;-45
2022/04/23 01:54:29;;;;;;;26.00;13.13;;;;;;;5.87;100.00;100239.47;7393937;19;20418;-46
2022/04/23 01:56:59;;;;;;;24.27;14.77;;;;;;;5.85;100.00;100225.69;7385111;19;20385;-44
2022/04/23 01:59:30;;;;;;;25.77;14.83;;;;;;;5.91;100.00;100215.78;7397610;19;20473;-45
2022/04/23 02:01:59;;;;;;;20.27;12.53;;;;;;;5.86;100.00;100208.66;7391275;19;20712;-45
2022/04/23 02:04:29;;;;;;;23.67;13.53;;;;;;;5.76;100.00;100195.41;7393493;19;20472;-49
2022/04/23 02:07:02;;;;;;;26.20;14.17;;;;;;;5.67;100.00;100192.34;7390743;19;20385;-44
2022/04/23 02:09:33;;;;;;;28.70;14.70;;;;;;;5.71;100.00;100172.91;7394390;19;20385;-44
2022/04/23 02:12:02;;;;;;;27.53;16.27;;;;;;;5.73;100.00;100155.94;7386513;19;20385;-44
2022/04/23 02:14:32;;;;;;;32.93;15.37;;;;;;;5.71;100.00;100150.75;7393492;19;20412;-44
2022/04/23 02:17:03;;;;;;;25.60;15.47;;;;;;;5.80;100.00;100142.66;7384880;19;20391;-44
2022/04/23 02:19:33;;;;;;;26.97;15.13;;;;;;;5.81;100.00;100129.06;7394978;19;20386;-45
2022/04/23 02:22:06;;;;;;;22.43;13.70;;;;;;;5.71;100.00;100131.94;7390049;19;20409;-46
2022/04/23 02:24:36;;;;;;;28.33;15.00;;;;;;;5.70;100.00;100115.72;7393095;19;20425;-46
2022/04/23 02:27:06;;;;;;;27.57;16.03;;;;;;;5.77;100.00;100112.66;7389387;19;20381;-44
2022/04/23 02:29:36;;;;;;;31.43;15.90;;;;;;;5.73;100.00;100113.31;7393928;19;20429;-47
2022/04/23 02:32:06;;;;;;;28.07;15.97;;;;;;;5.60;100.00;100116.03;7389517;19;20385;-45
2022/04/23 02:34:36;;;;;;;26.73;15.40;;;;;;;5.67;100.00;100100.19;7392743;19;20423;-46
2022/04/23 02:37:09;;;;;;;31.30;17.10;;;;;;;5.57;100.00;100095.38;7386952;19;20389;-45
2022/04/23 02:39:39;;;;;;;28.90;16.77;;;;;;;5.65;100.00;100082.19;7394773;19;20392;-45
2022/04/23 02:42:09;;;;;;;32.03;16.20;;;;;;;5.54;100.00;100073.13;7383337;19;21035;-46
2022/04/23 02:44:39;;;;;;;32.10;16.93;;;;;;;5.53;100.00;100072.22;7391416;19;20423;-44
2022/04/23 02:47:10;;;;;;;29.30;16.33;;;;;;;5.73;100.00;100051.88;7386131;19;20902;-45
2022/04/23 02:49:40;;;;;;;31.00;18.20;;;;;;;5.60;100.00;100049.50;7393657;19;20379;-46
2022/04/23 02:52:12;;;;;;;30.73;16.87;;;;;;;5.56;100.00;100037.34;7389308;19;20384;-44
2022/04/23 02:54:41;;;;;;;28.83;17.20;;;;;;;5.49;100.00;100034.47;7392880;19;20415;-43
2022/04/23 02:57:12;;;;;;;35.87;18.37;;;;;;;5.49;100.00;100019.13;7392266;19;20393;-46
2022/04/23 02:59:42;;;;;;;107.50;49.20;;;;;;;5.44;100.00;100004.34;7394118;19;20910;-45
2022/04/23 03:02:11;;;;;;;116.30;52.97;;;;;;;5.64;100.00;99983.19;7389768;19;20391;-44
2022/04/23 03:04:42;;;;;;;90.53;43.77;;;;;;;5.66;100.00;99973.03;7392044;19;20416;-44
2022/04/23 03:07:14;;;;;;;61.30;32.47;;;;;;;5.72;100.00;99967.31;7388781;19;20397;-47
2022/04/23 03:09:43;;;;;;;39.53;21.33;;;;;;;5.66;100.00;99975.59;7392941;19;20440;-44
2022/04/23 03:12:13;;;;;;;37.83;21.53;;;;;;;5.65;100.00;99976.38;7389320;19;20769;-45
2022/04/23 03:14:43;;;;;;;47.17;23.23;;;;;;;5.67;100.00;99970.53;7392299;19;20411;-46
2022/04/23 03:17:12;;;;;;;40.13;22.90;;;;;;;5.66;100.00;99965.34;7385595;19;20435;-46
2022/04/23 03:19:42;;;;;;;44.93;24.13;;;;;;;5.67;100.00;99969.66;7397828;19;20411;-44
2022/04/23 03:22:14;;;;;;;39.47;20.37;;;;;;;5.56;100.00;99966.56;7389472;19;20388;-46
2022/04/23 03:24:44;;;;;;;39.17;20.10;;;;;;;5.44;100.00;99976.19;7390983;19;20416;-46
2022/04/23 03:27:13;;;;;;;44.70;23.80;;;;;;;5.53;100.00;99977.53;7386278;19;20428;-45
2022/04/23 03:29:44;;;;;;;49.20;26.47;;;;;;;5.64;100.00;99972.06;7392367;19;20384;-44
2022/04/23 03:32:13;;;;;;;38.03;21.90;;;;;;;5.66;100.00;99973.88;7387514;19;20965;-46
2022/04/23 03:34:43;;;;;;;31.03;19.33;;;;;;;5.49;100.00;99967.94;7393329;19;20771;-45
2022/04/23 03:37:15;;;;;;;33.33;19.77;;;;;;;5.32;100.00;99963.69;7386593;19;20421;-47
2022/04/23 03:39:45;;;;;;;43.37;20.67;;;;;;;5.23;100.00;99961.53;7393067;19;20368;-48
2022/04/23 03:42:14;;;;;;;38.73;20.10;;;;;;;5.26;100.00;99954.00;7387144;19;20407;-47
2022/04/23 03:44:44;;;;;;;35.57;19.57;;;;;;;5.33;100.00;99934.75;7390120;19;20773;-46
2022/04/23 03:47:15;;;;;;;33.53;19.73;;;;;;;5.25;100.00;99929.22;7385718;19;20410;-44
2022/04/23 03:49:46;;;;;;;34.17;19.50;;;;;;;5.29;100.00;99922.59;7392654;19;20974;-44
2022/04/23 03:52:18;;;;;;;34.30;18.87;;;;;;;5.22;100.00;99919.72;7387995;19;20931;-47
2022/04/23 03:54:48;;;;;;;38.63;21.27;;;;;;;5.19;100.00;99916.13;7393467;19;20407;-44
2022/04/23 03:57:18;;;;;;;37.27;21.97;;;;;;;5.16;100.00;99911.75;7392915;19;20427;-47
2022/04/23 03:59:47;;;;;;;37.50;21.10;;;;;;;5.26;100.00;99901.19;7399907;19;20788;-46
2022/04/23 04:02:16;;;;;;;40.23;20.83;;;;;;;5.16;100.00;99906.63;7393581;19;20403;-45
2022/04/23 04:04:47;;;;;;;39.43;21.57;;;;;;;5.12;100.00;99899.59;7396422;19;20930;-47
2022/04/23 04:07:21;;;;;;;37.37;21.73;;;;;;;5.07;100.00;99891.69;7392794;19;20414;-46
2022/04/23 04:09:51;;;;;;;41.33;21.67;;;;;;;5.05;100.00;99882.19;7404022;19;20410;-45
2022/04/23 04:12:20;;;;;;;36.60;20.60;;;;;;;5.05;100.00;99870.28;7392370;19;20417;-45
2022/04/23 04:14:50;;;;;;;40.77;21.17;;;;;;;5.12;100.00;99857.00;7397275;19;20396;-43
2022/04/23 04:17:20;;;;;;;40.77;20.90;;;;;;;4.96;100.00;99850.25;7393034;19;20420;-45
2022/04/23 04:19:49;;;;;;;44.80;21.67;;;;;;;5.04;100.00;99830.19;7397917;19;20395;-47
2022/04/23 04:22:21;;;;;;;39.43;22.87;;;;;;;4.86;100.00;99825.91;7390048;19;20394;-44
2022/04/23 04:24:51;;;;;;;37.53;20.50;;;;;;;4.99;100.00;99814.59;7396903;19;20414;-45
2022/04/23 04:27:21;;;;;;;44.90;22.63;;;;;;;5.05;100.00;99805.47;7391586;19;20423;-46
2022/04/23 04:29:51;;;;;;;38.97;21.47;;;;;;;5.16;100.00;99799.22;7398752;19;20392;-47
2022/04/23 04:32:20;;;;;;;39.67;21.63;;;;;;;5.12;100.00;99797.31;7392032;19;20411;-44
2022/04/23 04:34:50;;;;;;;43.83;24.40;;;;;;;5.08;100.00;99787.75;7396647;19;20417;-43
2022/04/23 04:37:22;;;;;;;48.40;22.63;;;;;;;5.03;100.00;99791.75;7390686;19;20419;-44
2022/04/23 04:39:51;;;;;;;36.97;21.90;;;;;;;5.05;100.00;99790.13;7398068;19;20384;-46
2022/04/23 04:42:21;;;;;;;37.30;21.60;;;;;;;5.08;100.00;99791.16;7392612;19;20395;-46
2022/04/23 04:44:51;;;;;;;40.80;23.40;;;;;;;5.21;100.00;99792.66;7396322;19;20407;-44
2022/04/23 04:47:20;;;;;;;35.57;20.67;;;;;;;5.15;100.00;99792.34;7390133;19;20415;-44
2022/04/23 04:49:50;;;;;;;39.70;22.77;;;;;;;5.22;100.00;99786.72;7398167;19;20404;-45
2022/04/23 04:52:22;;;;;;;43.77;22.90;;;;;;;5.19;100.00;99799.38;7390998;19;20409;-44
2022/04/23 04:54:58;;;;;;;36.77;20.10;;;;;;;5.17;100.00;99795.84;7395086;19;20999;-46
2022/04/23 04:57:27;;;;;;;42.53;22.87;;;;;;;5.27;100.00;99792.94;7392177;19;20415;-46
2022/04/23 04:59:57;;;;;;;51.20;23.80;;;;;;;5.26;100.00;99790.31;7397305;19;20913;-46
2022/04/23 05:02:27;;;;;;;46.07;23.13;;;;;;;5.20;100.00;99798.56;7392123;19;20455;-46
2022/04/23 05:04:56;;;;;;;41.20;22.33;;;;;;;5.25;100.00;99789.44;7395285;19;20524;-46
2022/04/23 05:07:28;;;;;;;41.43;23.57;;;;;;;5.32;100.00;99792.28;7389087;19;20411;-46
2022/04/23 05:09:58;;;;;;;38.70;21.63;;;;;;;5.39;100.00;99797.75;7397554;19;20379;-45
2022/04/23 05:12:27;;;;;;;42.57;22.13;;;;;;;5.39;100.00;99802.00;7392007;19;20431;-48
2022/04/23 05:14:57;;;;;;;39.47;21.23;;;;;;;5.48;100.00;99804.13;7393676;19;20405;-45
2022/04/23 05:17:27;;;;;;;40.00;20.67;;;;;;;5.54;100.00;99807.84;7389845;19;20415;-45
2022/04/23 05:19:56;;;;;;;43.37;22.47;;;;;;;5.63;100.00;99811.63;7397190;19;20368;-46
2022/04/23 05:22:28;;;;;;;41.20;21.03;;;;;;;5.70;100.00;99813.69;7391611;19;20484;-44
2022/04/23 05:24:58;;;;;;;38.20;20.90;;;;;;;5.84;100.00;99816.84;7395069;19;20408;-46
2022/04/23 05:27:27;;;;;;;35.70;21.00;;;;;;;5.75;100.00;99821.56;7391738;19;20941;-46
2022/04/23 05:29:57;;;;;;;37.10;20.50;;;;;;;5.84;100.00;99827.09;7396861;19;20396;-44
2022/04/23 05:32:27;;;;;;;38.77;21.47;;;;;;;5.90;100.00;99832.50;7389445;19;20420;-44
2022/04/23 05:35:00;;;;;;;34.20;19.73;;;;;;;6.02;100.00;99833.88;7395411;19;20503;-45
2022/04/23 05:37:33;;;;;;;37.83;23.07;;;;;;;6.01;100.00;99837.25;7392530;19;20472;-47
2022/04/23 05:40:02;;;;;;;31.40;19.90;;;;;;;6.09;100.00;99843.63;7396635;19;20386;-46
2022/04/23 05:42:32;;;;;;;38.10;21.27;;;;;;;6.07;100.00;99856.34;7388193;19;20432;-46
2022/04/23 05:45:01;;;;;;;35.23;20.37;;;;;;;6.04;100.00;99863.00;7393575;19;20425;-44
2022/04/23 05:47:31;;;;;;;36.20;20.00;;;;;;;6.13;100.00;99873.69;7387711;19;20759;-45
2022/04/23 05:50:00;;;;;;;47.17;23.37;;;;;;;6.22;100.00;99875.81;7399139;19;20408;-47
2022/04/23 05:52:32;;;;;;;35.43;20.37;;;;;;;6.30;100.00;99884.69;7389076;19;20947;-45
2022/04/23 05:55:02;;;;;;;43.73;21.73;;;;;;;6.30;100.00;99894.09;7395373;19;20430;-44
2022/04/23 05:57:33;;;;;;;35.53;19.20;;;;;;;6.33;100.00;99900.22;7388277;19;20436;-44
2022/04/23 06:00:03;;;;;;;35.37;19.00;;;;;;;6.45;100.00;99907.56;7395721;19;20387;-45
2022/04/23 06:02:32;;;;;;;30.50;19.30;;;;;;;6.52;100.00;99915.53;7386745;19;20443;-47
2022/04/23 06:05:02;;;;;;;29.13;18.03;;;;;;;6.58;100.00;99937.22;7398273;19;20431;-45
2022/04/23 06:07:34;;;;;;;34.07;18.57;;;;;;;6.62;100.00;99939.06;7387612;19;20413;-45
2022/04/23 06:10:04;;;;;;;31.47;17.50;;;;;;;6.71;100.00;99958.22;7395976;19;20901;-45
2022/04/23 06:12:35;;;;;;;30.13;18.57;;;;;;;6.76;100.00;99961.88;7386048;19;20415;-45
2022/04/23 06:15:05;;;;;;;34.13;19.17;;;;;;;6.80;100.00;99980.84;7393575;19;20411;-44
2022/04/23 06:17:35;;;;;;;37.07;20.57;;;;;;;6.91;100.00;99979.63;7386403;19;20431;-48
2022/04/23 06:20:05;;;;;;;30.50;18.67;;;;;;;6.96;100.00;100002.91;7395431;19;20392;-44
2022/04/23 06:22:37;;;;;;;29.73;17.70;;;;;;;7.00;100.00;100012.50;7390063;19;20497;-44
2022/04/23 06:25:08;;;;;;;32.80;18.03;;;;;;;7.01;100.00;100025.41;7392125;19;20415;-48
2022/04/23 06:27:38;;;;;;;33.57;19.10;;;;;;;7.14;100.00;100044.78;7388843;19;20423;-48
2022/04/23 06:30:09;;;;;;;30.80;16.27;;;;;;;7.26;100.00;100066.66;7394955;19;20387;-49
2022/04/23 06:32:39;;;;;;;27.57;17.53;;;;;;;7.39;100.00;100084.34;7390053;19;20494;-47
2022/04/23 06:35:10;;;;;;;28.53;17.70;;;;;;;7.39;100.00;100099.75;7393374;19;20433;-45
2022/04/23 06:37:43;;;;;;;28.70;17.37;;;;;;;7.56;100.00;100126.19;7387416;19;20399;-46
2022/04/23 06:40:14;;;;;;;33.03;18.10;;;;;;;7.69;100.00;100153.25;7394569;19;20426;-47
2022/04/23 06:42:46;;;;;;;22.30;15.20;;;;;;;7.78;100.00;100177.56;7386866;19;20422;-45
2022/04/23 06:45:17;;;;;;;25.63;15.87;;;;;;;7.89;100.00;100199.47;7391707;19;20411;-48
2022/04/23 06:47:46;;;;;;;25.80;14.67;;;;;;;8.00;100.00;100227.34;7386490;19;20415;-44
2022/04/23 06:50:16;;;;;;;28.63;16.13;;;;;;;8.18;100.00;100246.13;7394155;19;20741;-47
2022/04/23 06:52:48;;;;;;;21.53;13.10;;;;;;;8.33;100.00;100268.16;7387357;19;20407;-52
2022/04/23 06:55:17;;;;;;;23.70;14.17;;;;;;;8.42;100.00;100299.41;7394446;19;20388;-46
2022/04/23 06:57:47;;;;;;;17.50;12.40;;;;;;;8.46;100.00;100331.28;7388911;19;20395;-45
2022/04/23 07:00:17;;;;;;;22.57;13.90;;;;;;;8.67;100.00;100346.75;7395325;19;20387;-47
2022/04/23 07:02:47;;;;;;;20.00;12.97;;;;;;;8.91;100.00;100361.47;7383594;19;20411;-45
2022/04/23 07:05:17;;;;;;;18.17;12.47;;;;;;;9.01;100.00;100378.19;7391448;19;20411;-46
2022/04/23 07:07:59;;;;;;;19.07;12.50;;;;;;;9.11;100.00;100407.75;7385826;19;20421;-46
2022/04/23 07:10:31;;;;;;;17.70;13.03;;;;;;;9.18;100.00;100430.41;7393398;19;20394;-45
2022/04/23 07:13:01;;;;;;;16.47;11.90;;;;;;;9.34;100.00;100451.63;7388526;19;20788;-44
2022/04/23 07:15:31;;;;;;;19.40;14.27;;;;;;;9.40;100.00;100475.94;7391395;19;21275;-46
2022/04/23 07:18:00;;;;;;;18.20;13.00;;;;;;;9.44;100.00;100485.53;7384951;19;20422;-45
2022/04/23 07:20:30;;;;;;;17.40;11.03;;;;;;;10.24;100.00;100504.16;7392821;19;20727;-46
2022/04/23 07:25:44;;;;;;;18.80;12.30;;;;;;;10.30;100.00;100552.53;7391164;19;20411;-44
2022/04/23 07:28:13;;;;;;;20.77;10.87;;;;;;;10.23;100.00;100569.44;7388127;19;20466;-44
2022/04/23 07:30:43;;;;;;;16.17;10.43;;;;;;;10.36;100.00;100579.44;7391488;19;20411;-44
2022/04/23 07:37:28;;;;;;;15.10;10.43;;;;;;;10.59;100.00;100589.81;7386529;19;20426;-46
2022/04/23 07:38:48;;;;;;;62.23;37.83;;;;;;;11.02;100.00;100620.69;7386191;19;20435;-45
2022/04/23 07:41:18;;;;;;;49.00;29.77;;;;;;;11.12;100.00;100635.69;7392210;19;20400;-44
2022/04/23 07:43:48;;;;;;;20.27;13.97;;;;;;;11.04;100.00;100650.00;7382624;19;20415;-44
2022/04/23 07:46:17;;;;;;;43.57;27.10;;;;;;;11.17;100.00;100647.06;7392797;19;20399;-47
2022/04/23 07:48:47;;;;;;;24.73;14.80;;;;;;;11.31;100.00;100665.66;7383791;19;20412;-47
2022/04/23 07:51:17;;;;;;;39.80;25.20;;;;;;;11.48;100.00;100663.69;7391473;19;20389;-46
2022/04/23 07:53:49;;;;;;;23.60;14.70;;;;;;;11.18;100.00;100669.47;7385308;19;20456;-46
2022/04/23 07:56:18;;;;;;;64.87;37.83;;;;;;;11.39;100.00;100673.69;7388227;19;20397;-47
2022/04/23 07:58:48;;;;;;;62.50;37.67;;;;;;;11.52;100.00;100681.88;7383287;19;20484;-46
2022/04/23 08:01:17;;;;;;;21.53;14.13;;;;;;;11.61;100.00;100690.00;7388930;19;20853;-45
2022/04/23 08:03:49;;;;;;;12.63;8.17;;;;;;;11.79;100.00;100696.66;7382481;19;20491;-45
2022/04/23 08:06:19;;;;;;;15.07;9.97;;;;;;;11.97;100.00;100694.72;7388227;19;20400;-43
2022/04/23 08:08:51;;;;;;;11.50;8.40;;;;;;;11.96;100.00;100698.13;7385034;19;20444;-46
2022/04/23 08:11:22;;;;;;;8.53;6.47;;;;;;;11.91;100.00;100702.25;7386714;19;20397;-46
2022/04/23 08:13:53;;;;;;;16.23;10.77;;;;;;;12.05;100.00;100701.91;7382576;19;20422;-45
2022/04/23 08:16:23;;;;;;;8.73;6.27;;;;;;;12.08;100.00;100717.50;7391179;19;20397;-47
2022/04/23 08:18:52;;;;;;;11.50;5.97;;;;;;;12.12;100.00;100719.38;7383628;19;20431;-47
2022/04/23 08:21:22;;;;;;;8.63;5.70;;;;;;;11.98;100.00;100732.69;7390861;19;20391;-46
2022/04/23 08:23:55;;;;;;;6.53;4.40;;;;;;;12.05;100.00;100738.09;7382210;19;20402;-47
2022/04/23 08:26:24;;;;;;;9.40;5.40;;;;;;;12.15;100.00;100735.88;7390530;19;20386;-46
2022/04/23 08:31:36;;;;;;;6.23;4.67;;;;;;;12.36;100.00;100734.84;7389695;19;20382;-47
2022/04/23 08:34:06;;;;;;;7.70;4.57;;;;;;;12.43;100.00;100735.97;7384259;19;20421;-50
2022/04/23 08:36:36;;;;;;;7.07;4.90;;;;;;;12.61;100.00;100732.22;7390305;19;20387;-44
2022/04/23 08:39:09;;;;;;;7.00;4.67;;;;;;;12.71;100.00;100726.50;7381281;19;20964;-48
2022/04/23 08:41:39;;;;;;;7.90;4.97;;;;;;;12.77;100.00;100728.44;7393285;19;20387;-45
2022/04/23 08:44:10;;;;;;;8.77;6.03;;;;;;;12.77;100.00;100731.03;7391400;19;20445;-50
2022/04/23 08:46:42;;;;;;;6.40;4.80;;;;;;;12.76;100.00;100730.13;7396789;19;20850;-46
2022/04/23 08:49:16;;;;;;;7.43;5.00;;;;;;;12.82;100.00;100727.75;7390484;19;20423;-46
2022/04/23 08:51:47;;;;;;;7.43;4.63;;;;;;;12.87;100.00;100733.06;7397787;19;20409;-45
2022/04/23 08:54:19;;;;;;;8.40;5.10;;;;;;;12.85;100.00;100728.66;7392627;19;20430;-47
2022/04/23 08:56:49;;;;;;;6.87;4.67;;;;;;;12.77;100.00;100723.25;7397785;19;20398;-45
2022/04/23 08:59:22;;;;;;;6.40;4.70;;;;;;;12.82;100.00;100727.75;7395506;19;20441;-46
2022/04/23 09:01:58;;;;;;;6.13;4.47;;;;;;;13.00;100.00;100718.81;7390561;19;20412;-46
2022/04/23 09:04:27;;;;;;;7.23;4.80;;;;;;;13.13;100.00;100717.44;7396101;19;20459;-44
2022/04/23 09:07:01;;;;;;;6.80;4.80;;;;;;;13.14;100.00;100724.41;7391754;19;20393;-48
2022/04/23 09:09:33;;;;;;;7.33;5.73;;;;;;;13.17;100.00;100719.31;7396408;19;20376;-46
2022/04/23 09:12:03;;;;;;;6.20;4.60;;;;;;;13.40;100.00;100718.25;7392981;19;20380;-45
2022/04/23 09:14:34;;;;;;;6.93;5.00;;;;;;;13.52;100.00;100721.22;7395573;19;21069;-46
2022/04/23 09:25:18;;;;;;;8.37;4.30;;;;;;;13.66;94.65;100712.97;7393775;19;20403;-48
2022/04/23 09:27:47;;;;;;;7.60;4.57;;;;;;;13.71;91.01;100717.47;7390399;19;20416;-46
2022/04/23 09:30:16;;;;;;;6.93;5.13;;;;;;;13.84;91.50;100710.03;7396948;19;20383;-48
2022/04/23 09:33:00;;;;;;;9.87;4.77;;;;;;;13.97;90.27;100706.94;7389485;19;20420;-46
2022/04/23 09:35:30;;;;;;;7.60;5.20;;;;;;;13.90;88.00;100700.69;7394513;19;20441;-49
2022/04/23 09:38:18;;;;;;;9.33;5.30;;;;;;;14.08;90.37;100704.63;7391825;19;20422;-45
2022/04/23 09:40:54;;;;;;;7.50;4.60;;;;;;;14.09;87.26;100690.81;7396174;19;20432;-45
2022/04/23 09:43:28;;;;;;;7.00;4.70;;;;;;;14.19;88.37;100691.91;7386552;19;20422;-49
2022/04/23 09:46:02;;;;;;;6.90;4.70;;;;;;;14.20;86.41;100695.41;7394679;19;20429;-51
2022/04/23 09:48:40;;;;;;;6.77;5.00;;;;;;;14.15;84.63;100688.38;7390840;19;20418;-47
2022/04/23 09:51:24;;;;;;;8.20;5.67;;;;;;;14.28;86.65;100683.50;7395806;19;20404;-46
2022/04/23 09:53:55;;;;;;;7.73;5.27;;;;;;;14.30;85.41;100681.81;7389067;19;20422;-45
2022/04/23 09:56:28;;;;;;;7.23;4.83;;;;;;;14.39;84.07;100674.25;7395529;19;20380;-47
2022/04/23 09:58:58;;;;;;;6.17;4.53;;;;;;;14.54;84.50;100675.47;7388268;19;20426;-47
2022/04/23 10:01:27;;;;;;;8.43;4.50;;;;;;;14.69;83.24;100675.84;7392963;19;20399;-45
2022/04/23 10:04:03;;;;;;;7.27;4.90;;;;;;;14.67;84.37;100680.09;7389612;19;20419;-47
2022/04/23 10:06:39;;;;;;;7.50;5.27;;;;;;;14.36;84.59;100683.69;7395687;19;20386;-47
2022/04/23 10:09:10;;;;;;;9.00;5.60;;;;;;;14.29;83.74;100688.72;7391873;19;20430;-52
2022/04/23 10:11:44;;;;;;;5.83;4.43;;;;;;;14.62;83.54;100676.56;7395678;19;20459;-45
2022/04/23 10:14:14;;;;;;;7.40;5.23;;;;;;;14.87;84.28;100671.06;7384093;19;20442;-46
2022/04/23 10:16:45;;;;;;;8.67;4.90;;;;;;;14.84;79.72;100687.47;7395256;19;20717;-51
2022/04/23 10:19:16;;;;;;;7.90;5.27;;;;;;;14.91;80.25;100681.56;7387224;19;20422;-45
2022/04/23 10:21:53;;;;;;;9.37;5.70;;;;;;;14.78;78.61;100676.94;7395382;19;20386;-48
2022/04/23 10:24:30;;;;;;;6.50;4.20;;;;;;;14.51;77.88;100671.06;7393102;19;20408;-46
2022/04/23 10:27:07;;;;;;;8.03;5.50;;;;;;;14.47;80.35;100676.16;7390140;19;20738;-48
2022/04/23 10:29:37;;;;;;;9.17;4.97;;;;;;;14.53;79.33;100674.59;7395130;19;20443;-46
2022/04/23 10:32:20;;;;;;;7.40;4.40;;;;;;;14.17;78.20;100678.91;7388992;19;20388;-43
2022/04/23 10:34:50;;;;;;;10.83;5.27;;;;;;;14.07;80.36;100679.50;7393629;19;20491;-48
2022/04/23 10:37:21;;;;;;;9.57;4.90;;;;;;;14.19;81.72;100684.13;7387821;19;20413;-46
2022/04/23 10:40:18;;;;;;;9.20;5.27;;;;;;;14.36;80.34;100674.16;7394560;19;20387;-45
2022/04/23 10:43:12;;;;;;;12.77;4.77;;;;;;;14.69;77.79;100672.38;7389391;19;20411;-46
2022/04/23 10:45:42;;;;;;;12.17;5.07;;;;;;;14.84;76.64;100671.88;7391956;19;20412;-46
2022/04/23 10:48:25;;;;;;;6.50;4.50;;;;;;;15.07;76.91;100674.97;7387257;19;20415;-47
2022/04/23 10:51:10;;;;;;;7.87;4.60;;;;;;;15.18;74.46;100667.41;7393333;19;20479;-51
2022/04/23 10:53:58;;;;;;;6.60;4.63;;;;;;;15.24;73.90;100661.50;7387039;19;20426;-50
2022/04/23 10:56:28;;;;;;;8.77;5.80;;;;;;;15.44;73.54;100659.28;7394204;19;20380;-47
2022/04/23 10:59:02;;;;;;;10.13;5.67;;;;;;;15.62;77.96;100655.28;7386215;19;20420;-49
2022/04/23 11:01:36;;;;;;;8.00;5.57;;;;;;;15.78;82.10;100662.56;7392603;19;20998;-46
2022/04/23 11:04:12;;;;;;;7.43;5.40;;;;;;;16.00;77.10;100649.94;7385646;19;20435;-48
2022/04/23 11:12:36;;;;;;;10.37;6.23;;;;;;;16.06;73.43;100649.22;7386853;19;20426;-45
2022/04/23 11:15:19;;;;;;;7.90;5.03;;;;;;;16.08;70.21;100647.50;7391774;19;20414;-47
2022/04/23 11:17:59;;;;;;;22.47;15.73;;;;;;;16.03;74.98;100647.41;7384002;19;20409;-49
2022/04/23 11:20:33;;;;;;;126.90;75.67;;;;;;;15.64;77.45;100645.81;7392909;19;20398;-47
2022/04/23 11:23:04;;;;;;;14.77;9.90;;;;;;;15.66;75.78;100644.97;7386959;19;20413;-49
2022/04/23 11:25:34;;;;;;;17.67;11.90;;;;;;;15.56;78.72;100636.97;7390998;19;20416;-47
2022/04/23 11:28:18;;;;;;;14.53;9.93;;;;;;;15.43;78.07;100641.94;7387033;19;20419;-44
2022/04/23 11:30:52;;;;;;;23.33;14.93;;;;;;;15.46;78.75;100647.22;7393123;19;20379;-47
2022/04/23 11:33:21;;;;;;;65.83;40.17;;;;;;;15.45;79.12;100640.25;7387352;19;20444;-46
2022/04/23 11:35:51;;;;;;;24.40;16.27;;;;;;;15.34;78.82;100629.63;7391167;19;20424;-48
2022/04/23 11:38:25;;;;;;;30.13;17.47;;;;;;;15.17;78.19;100634.47;7388165;19;20408;-45
2022/04/23 11:40:54;;;;;;;19.50;12.20;;;;;;;15.14;78.47;100626.63;7391364;19;20393;-45
2022/04/23 11:43:33;;;;;;;17.17;10.70;;;;;;;15.28;79.84;100624.31;7385905;19;20435;-45
2022/04/23 11:46:08;;;;;;;13.00;7.13;;;;;;;15.03;76.73;100628.13;7391004;19;20418;-49
2022/04/23 11:48:42;;;;;;;17.60;10.53;;;;;;;15.02;77.94;100616.84;7384812;19;20781;-49
2022/04/23 11:51:13;;;;;;;10.77;7.27;;;;;;;15.16;74.37;100616.25;7391802;19;20816;-51
2022/04/23 11:53:55;;;;;;;6.87;5.03;;;;;;;15.30;72.61;100611.34;7383500;19;20426;-47
2022/04/23 11:56:25;;;;;;;9.97;6.97;;;;;;;15.30;75.24;100609.63;7392506;19;20384;-46